Date,TemperatureHighF,TemperatureAvgF,TemperatureLowF,DewpointHighF,DewpointAvgF,DewpointLowF,HumidityHigh,HumidityAvg,HumidityLow,PressureMaxIn,PressureMinIn,WindSpeedMaxMPH,WindSpeedAvgMPH,GustSpeedMaxMPH,PrecipitationSumIn
2013-1-1,22,12,2,14,7,-2,89,81,69,30.70,30.45,7,2,12,0.00
2013-1-2,22,11,0,11,5,-4,88,78,60,30.76,30.69,5,1,5,0.00
2013-1-3,30,9,0,14,4,-5,89,79,48,30.70,30.52,7,1,10,0.00
2013-1-4,37,16,-2,20,8,-6,96,71,39,30.60,30.46,13,3,15,0.00
2013-1-5,39,26,14,21,16,10,88,69,46,30.52,30.23,14,6,17,0.00
2013-1-6,39,27,15,23,18,11,87,69,50,30.23,30.03,13,4,16,0.00
2013-1-7,36,32,27,26,22,18,72,67,59,30.12,29.83,15,9,24,0.00
2013-1-8,42,37,32,30,24,18,72,60,41,30.07,29.85,16,8,26,0.00
2013-1-9,45,40,34,29,25,22,64,55,47,30.03,29.56,18,14,27,0.00
2013-1-10,41,24,8,28,18,4,92,81,49,29.88,29.52,15,9,21,0.00
2013-1-11,12,6,-4,5,1,-9,92,79,74,30.42,29.88,11,4,15,0.00
2013-1-12,12,-3,-13,4,-8,-18,92,80,70,30.57,30.41,8,2,9,0.02
2013-1-13,12,-1,-11,3,-7,-16,92,77,64,30.64,30.54,8,3,11,0.00
2013-1-14,16,5,-9,7,-1,-14,92,78,64,30.66,30.52,11,4,17,0.00
2013-1-15,27,15,6,22,11,2,88,85,81,30.67,30.59,10,2,11,0.00
2013-1-16,32,18,4,21,12,0,91,79,62,30.70,30.61,7,2,11,0.03
2013-1-17,38,23,14,21,14,7,81,70,47,30.68,30.43,11,5,14,0.01
2013-1-18,49,36,21,21,16,11,73,45,27,30.44,30.15,14,6,21,0.02
2013-1-19,46,26,13,20,13,6,78,59,29,30.44,30.24,9,4,13,0.00
2013-1-20,39,22,9,21,13,4,89,68,47,30.49,30.42,9,2,12,0.00
2013-1-21,49,32,16,21,15,9,76,52,29,30.45,30.21,11,6,17,0.00
2013-1-22,38,21,6,20,11,0,88,66,37,30.31,30.21,9,2,14,0.00
2013-1-23,51,32,13,24,16,9,92,56,23,30.31,30.01,16,5,24,0.00
2013-1-24,44,36,22,31,25,17,87,66,35,30.16,29.95,15,7,27,0.00
2013-1-25,44,38,32,32,28,22,81,66,55,30.17,29.93,13,7,18,0.00
2013-1-26,53,37,28,33,29,26,91,73,44,29.93,29.66,17,8,20,0.00
2013-1-27,34,24,13,27,19,7,92,81,63,30.00,29.80,7,2,11,0.08
2013-1-28,31,23,14,17,14,9,86,69,53,30.02,29.86,11,5,17,0.00
2013-1-29,26,20,14,22,16,10,90,81,69,30.23,29.84,11,2,14,0.00
2013-1-30,38,31,18,30,24,14,89,77,61,30.18,30.09,18,7,27,0.02
2013-1-31,44,38,33,30,27,25,77,65,57,30.17,30.07,15,7,21,0.00
2013-2-1,42,36,28,29,24,18,87,64,46,30.37,30.04,16,7,21,0.02
2013-2-2,46,31,21,28,21,15,85,67,41,30.49,30.33,11,5,15,0.00
2013-2-3,44,32,24,25,20,15,79,61,39,30.33,30.07,11,5,15,0.00
2013-2-4,42,37,33,29,23,16,68,57,46,30.07,29.96,13,4,18,0.00
2013-2-5,49,36,25,29,25,20,91,66,38,29.99,29.75,12,4,15,0.00
2013-2-6,41,32,22,29,21,15,84,64,41,30.13,29.85,12,4,19,0.00
2013-2-7,41,32,23,22,18,14,77,55,42,30.11,29.92,20,11,25,0.00
2013-2-8,37,25,14,25,18,10,90,75,57,30.07,29.96,11,3,16,0.00
2013-2-9,35,25,17,23,19,13,92,78,49,30.13,29.92,12,3,17,0.00
2013-2-10,35,21,8,25,16,3,92,80,58,30.28,30.13,8,1,13,0.11
2013-2-11,31,17,8,22,11,3,92,77,64,30.33,30.24,11,4,13,0.00
2013-2-12,39,31,19,28,23,15,84,70,59,30.32,30.14,14,6,19,0.00
2013-2-13,41,36,33,27,23,16,73,58,45,30.19,30.03,15,6,26,0.00
2013-2-14,37,32,23,25,20,18,85,63,47,30.45,30.19,17,9,25,0.00
2013-2-15,43,32,22,26,22,17,92,70,48,30.51,30.35,7,1,11,0.00
2013-2-16,50,36,24,29,24,18,88,63,41,30.35,29.79,24,7,28,0.00
2013-2-17,33,30,23,28,21,15,87,69,56,30.10,29.79,16,5,21,0.00
2013-2-18,38,29,22,16,13,10,73,52,33,30.15,29.91,19,9,26,0.00
2013-2-19,41,31,20,21,15,9,92,52,36,29.91,29.65,19,11,26,0.00
2013-2-20,33,24,16,26,19,12,90,80,59,30.02,29.78,10,2,14,0.03
2013-2-21,33,22,8,18,12,4,84,65,37,30.13,30.01,11,5,18,0.00
2013-2-22,40,31,24,24,18,14,72,59,42,30.08,29.70,16,9,27,0.00
2013-2-23,34,29,19,26,18,9,85,64,38,30.17,29.62,14,6,20,0.00
2013-2-24,37,25,10,15,11,5,82,57,36,30.35,30.17,16,6,20,0.00
2013-2-25,36,28,20,22,16,12,75,61,45,30.22,29.93,15,7,21,0.00
2013-2-26,38,27,19,16,13,10,75,58,36,30.34,30.07,15,5,21,0.00
2013-2-27,43,27,14,16,12,8,81,55,30,30.39,30.28,14,5,19,0.00
2013-2-28,45,34,16,28,21,11,83,60,44,30.40,30.32,9,4,14,0.00
2013-3-1,55,42,34,34,30,26,80,62,43,30.37,30.29,11,4,18,0.00
2013-3-2,58,42,31,31,27,24,81,60,28,30.31,29.86,12,4,18,0.00
2013-3-3,42,33,26,32,21,5,92,63,29,30.05,29.67,24,10,33,0.00
2013-3-4,31,22,13,19,14,8,94,71,44,30.39,30.05,14,3,19,0.01
2013-3-5,42,32,20,15,11,9,67,44,28,30.30,29.96,18,15,26,0.00
2013-3-6,51,38,31,31,23,15,82,56,33,29.96,29.60,17,8,25,0.00
2013-3-7,47,34,20,25,18,4,83,56,18,30.04,29.77,10,3,16,0.00
2013-3-8,45,28,15,22,16,9,90,62,24,30.10,29.95,9,3,13,0.00
2013-3-9,44,29,11,22,17,6,91,63,36,30.42,30.10,9,3,15,0.00
2013-3-10,53,33,14,27,17,10,91,59,23,30.47,30.19,15,5,19,0.00
2013-3-11,46,37,25,27,17,5,79,48,20,30.23,30.10,19,9,30,0.00
2013-3-12,54,38,22,30,23,11,69,54,39,30.24,30.08,12,4,21,0.00
2013-3-13,61,49,39,31,28,24,61,45,27,30.16,30.06,13,5,17,0.00
2013-3-14,62,48,32,31,27,22,75,47,27,30.12,29.91,14,5,19,0.00
2013-3-15,54,45,35,32,25,21,63,47,28,30.00,29.91,18,6,23,0.00
2013-3-16,52,40,29,28,23,19,83,55,29,29.99,29.59,11,4,16,0.00
2013-3-17,37,30,24,30,19,9,91,65,46,30.02,29.53,21,9,32,0.02
2013-3-18,38,28,21,22,13,7,90,55,30,30.10,29.97,20,8,27,0.00
2013-3-19,47,31,21,24,17,8,90,59,22,30.32,30.08,14,2,15,0.05
2013-3-20,56,41,32,34,25,11,88,54,33,30.08,29.50,26,10,29,0.00
2013-3-21,35,29,20,28,14,6,87,54,30,30.01,29.63,18,8,27,0.00
2013-3-22,34,22,14,20,14,8,85,70,40,30.28,30.00,15,4,16,0.00
2013-3-23,32,21,9,20,12,5,87,70,47,30.41,30.28,10,2,13,0.01
2013-3-24,37,23,10,15,9,6,85,60,30,30.46,30.31,6,2,10,0.00
2013-3-25,50,30,14,19,10,7,79,48,19,30.33,30.07,12,5,17,0.00
2013-3-26,54,39,27,25,21,18,76,52,26,30.07,29.89,8,2,12,0.00
2013-3-27,60,40,23,33,24,18,84,57,23,30.02,29.92,11,4,19,0.00
2013-3-28,60,42,26,35,29,23,93,64,31,30.08,29.97,18,4,20,0.00
2013-3-29,53,40,29,41,33,25,92,78,52,30.19,30.06,14,3,18,0.01
2013-3-30,60,43,26,35,28,21,93,60,27,30.25,30.09,8,2,11,0.00
2013-3-31,64,42,22,32,25,18,91,56,21,30.12,29.97,9,3,13,0.00
2013-4-1,66,44,22,32,26,19,91,56,24,30.04,29.90,9,3,12,0.00
2013-4-2,67,47,28,36,28,21,78,51,26,30.03,29.88,10,4,16,0.00
2013-4-3,62,47,31,34,29,25,85,54,27,30.03,29.94,10,2,15,0.00
2013-4-4,65,48,30,40,32,24,83,57,26,29.99,29.70,16,4,20,0.00
2013-4-5,58,47,40,37,32,25,78,57,30,29.83,29.67,19,7,25,0.00
2013-4-6,52,42,35,41,33,28,90,71,48,29.84,29.74,20,5,25,0.10
2013-4-7,51,38,30,39,32,26,93,79,53,29.83,29.53,20,5,24,0.06
2013-4-8,30,24,17,28,18,10,93,78,66,30.36,29.73,17,12,25,0.00
2013-4-9,45,26,7,23,13,3,86,62,27,30.54,30.31,8,2,12,0.01
2013-4-10,59,41,21,38,28,14,81,61,39,30.33,29.79,17,5,22,0.02
2013-4-11,51,42,32,34,25,18,82,54,27,29.99,29.85,19,10,27,0.00
2013-4-12,57,42,26,24,18,10,74,42,16,30.04,29.58,12,4,17,0.00
2013-4-13,47,38,26,33,20,8,78,52,25,29.69,29.36,25,11,33,0.01
2013-4-14,37,29,21,29,22,13,88,75,49,29.98,29.69,16,7,21,0.04
2013-4-15,34,25,17,15,13,11,81,63,45,30.20,29.97,20,11,25,0.00
2013-4-16,35,25,17,14,12,9,78,59,35,30.40,30.19,16,10,25,0.00
2013-4-17,42,25,8,18,8,3,90,55,22,30.47,30.35,11,3,16,0.00
2013-4-18,52,36,18,22,16,5,63,46,29,30.38,30.22,14,8,20,0.00
2013-4-19,54,43,34,35,29,21,85,59,39,30.23,29.81,17,6,23,0.00
2013-4-20,54,44,37,35,29,24,86,57,33,29.99,29.87,21,9,32,0.00
2013-4-21,47,36,19,33,26,16,89,68,49,30.22,29.89,20,9,29,0.00
2013-4-22,40,27,19,24,17,12,88,68,32,30.47,30.21,11,7,16,0.01
2013-4-23,45,32,16,22,17,10,82,57,33,30.46,30.24,11,5,17,0.00
2013-4-24,60,41,21,24,19,15,85,47,19,30.33,29.97,17,5,23,0.00
2013-4-25,63,48,34,26,22,17,60,37,21,30.00,29.81,17,6,25,0.00
2013-4-26,69,52,30,32,27,22,75,41,18,30.12,30.00,15,6,20,0.00
2013-4-27,71,57,42,32,26,20,63,35,15,30.07,29.82,18,9,28,0.00
2013-4-28,62,52,37,34,28,22,64,42,24,29.86,29.74,19,9,27,0.00
2013-4-29,51,42,29,37,28,20,84,57,39,29.82,29.51,21,9,31,0.03
2013-4-30,45,32,26,27,19,9,90,61,26,30.32,29.81,14,6,20,0.00
2013-5-1,49,34,19,28,20,15,89,60,28,30.66,30.32,11,3,17,0.01
2013-5-2,68,51,22,22,15,6,73,30,9,30.68,30.25,13,5,22,0.00
2013-5-3,53,46,40,39,29,16,88,54,31,30.25,30.09,13,5,17,0.01
2013-5-4,56,47,39,39,36,32,89,67,43,30.22,30.11,14,6,21,0.00
2013-5-5,71,50,27,38,32,24,94,56,26,30.12,29.87,8,2,14,0.00
2013-5-6,77,55,31,38,31,25,84,46,17,29.94,29.68,8,3,12,0.00
2013-5-7,73,55,38,40,34,28,70,47,23,29.92,29.73,19,6,24,0.00
2013-5-8,78,57,34,42,34,28,84,48,18,30.00,29.88,18,3,23,0.01
2013-5-9,78,57,40,43,36,31,78,49,20,30.04,29.91,15,5,19,0.00
2013-5-10,75,57,40,42,37,32,81,51,25,30.19,30.02,15,6,20,0.00
2013-5-11,79,60,38,39,35,30,76,43,20,30.20,29.95,13,4,19,0.00
2013-5-12,86,68,47,43,37,32,63,37,17,30.01,29.75,12,6,30,0.00
2013-5-13,86,66,45,47,37,23,74,41,12,29.83,29.48,21,8,31,0.00
2013-5-14,71,56,39,40,31,26,73,42,20,29.88,29.71,15,6,23,0.00
2013-5-15,72,54,38,41,32,25,72,45,24,29.93,29.73,17,4,18,0.00
2013-5-16,63,50,39,48,41,34,87,72,47,29.80,29.72,15,3,21,0.03
2013-5-17,51,46,42,48,42,38,93,86,73,29.87,29.77,7,1,12,0.15
2013-5-18,60,49,44,50,44,40,95,82,56,29.96,29.84,15,3,17,0.05
2013-5-19,54,49,44,41,39,38,83,71,58,30.11,29.95,13,4,19,0.00
2013-5-20,68,54,46,46,41,36,89,65,36,30.17,29.97,8,3,12,0.00
2013-5-21,71,53,37,47,40,34,92,65,31,29.98,29.56,19,6,22,0.01
2013-5-22,67,52,36,44,40,34,94,66,39,29.78,29.48,16,6,22,0.09
2013-5-23,45,36,32,38,32,31,95,89,71,30.03,29.78,8,2,11,0.22
2013-5-24,60,46,33,40,34,30,94,68,36,30.02,29.86,17,7,23,0.08
2013-5-25,62,47,31,43,37,28,94,72,42,29.95,29.83,12,3,17,0.10
2013-5-26,68,48,34,45,39,31,95,75,36,29.96,29.73,23,3,33,0.02
2013-5-27,64,50,40,48,42,37,94,77,42,29.87,29.68,13,2,18,0.02
2013-5-28,56,49,42,48,43,39,92,81,66,29.72,29.64,10,3,15,0.02
2013-5-29,66,51,42,47,42,39,93,74,41,29.72,29.51,15,3,22,0.02
2013-5-30,57,49,43,42,37,31,88,65,41,29.96,29.70,16,7,21,0.02
2013-5-31,57,47,39,38,34,31,80,60,45,30.23,29.95,15,7,21,0.01
2013-6-1,71,52,32,42,35,28,91,58,23,30.26,29.92,10,4,13,0.01
2013-6-2,64,49,41,50,42,37,92,77,45,29.92,29.70,12,2,15,0.01
2013-6-3,58,48,40,45,40,37,92,75,53,30.05,29.81,19,6,22,0.01
2013-6-4,63,50,40,41,38,35,92,67,41,30.16,30.06,9,4,13,0.00
2013-6-5,74,57,36,49,41,32,90,59,33,30.12,29.85,10,5,15,0.01
2013-6-6,82,64,46,52,44,38,77,53,26,29.93,29.76,10,3,13,0.01
2013-6-7,78,64,50,51,45,41,80,53,28,29.80,29.60,17,7,22,0.00
2013-6-8,78,65,49,44,36,30,67,37,20,29.80,29.69,14,6,21,0.00
2013-6-9,82,65,44,44,35,27,74,38,15,29.79,29.54,17,7,24,0.00
2013-6-10,78,62,39,47,38,27,73,43,28,29.70,29.50,13,4,21,0.00
2013-6-11,73,60,48,56,48,39,90,66,40,29.83,29.50,17,3,23,0.01
2013-6-12,72,58,43,59,50,41,96,76,49,29.85,29.68,15,6,25,0.02
2013-6-13,54,48,40,48,43,36,92,83,71,29.99,29.77,11,4,17,0.01
2013-6-14,60,48,38,42,36,31,100,65,33,30.08,29.95,14,5,19,0.01
2013-6-15,77,57,34,44,36,19,87,52,13,30.08,29.84,12,4,18,0.00
2013-6-16,80,62,39,47,40,33,81,50,27,29.96,29.84,16,5,19,0.01
2013-6-17,84,65,42,58,45,35,92,55,21,29.92,29.67,13,3,18,0.00
2013-6-18,88,66,47,53,45,28,87,53,15,29.74,29.41,20,7,30,0.00
2013-6-19,71,54,46,56,45,37,90,72,47,29.70,29.39,21,6,25,0.01
2013-6-20,63,50,43,42,38,34,87,63,38,29.99,29.70,19,9,22,0.02
2013-6-21,65,50,35,47,40,33,95,72,38,30.01,29.91,14,2,17,0.03
2013-6-22,65,52,44,50,42,37,92,71,41,29.98,29.88,12,2,14,0.01
2013-6-23,77,59,37,50,42,33,91,58,26,29.91,29.58,9,3,12,0.00
2013-6-24,77,59,48,53,47,41,92,69,33,29.59,29.37,21,3,22,0.03
2013-6-25,74,60,50,50,47,42,93,65,33,29.77,29.59,14,6,22,0.03
2013-6-26,70,60,52,56,50,46,84,70,48,29.98,29.74,12,4,18,0.01
2013-6-27,85,66,45,60,50,42,94,62,28,30.07,29.97,9,2,14,0.00
2013-6-28,89,71,48,59,53,44,87,57,32,30.08,29.91,9,3,13,0.00
2013-6-29,89,70,52,63,54,47,85,57,34,29.96,29.78,14,4,20,0.00
2013-6-30,92,74,55,64,56,49,88,58,33,29.88,29.80,9,3,13,0.00
2013-7-1,98,76,54,65,56,48,87,54,20,29.94,29.79,8,2,12,0.00
2013-7-2,98,78,56,66,56,50,82,52,23,29.86,29.67,9,3,13,0.00
2013-7-3,93,76,59,62,54,46,81,50,25,29.75,29.61,12,4,16,0.00
2013-7-4,89,71,51,59,48,38,81,48,21,29.71,29.52,13,4,18,0.00
2013-7-5,86,66,50,61,48,40,82,56,27,29.65,29.48,10,2,13,0.04
2013-7-6,86,65,44,54,48,40,92,60,26,29.78,29.59,10,3,13,0.03
2013-7-7,90,69,50,57,49,44,83,53,22,29.71,29.55,11,3,14,0.00
2013-7-8,81,65,50,62,50,38,85,58,37,29.90,29.67,13,4,18,0.03
2013-7-9,88,68,43,53,45,39,86,49,23,30.01,29.84,8,3,12,0.00
2013-7-10,96,73,49,56,42,34,69,39,12,29.91,29.56,12,5,18,0.00
2013-7-11,80,66,52,54,46,40,81,52,28,29.73,29.54,19,4,28,0.01
2013-7-12,85,66,50,50,46,39,86,53,21,29.73,29.59,20,6,28,0.01
2013-7-13,82,63,42,50,43,35,90,53,27,29.95,29.70,12,5,17,0.00
2013-7-14,51,47,43,37,36,34,77,66,53,29.99,29.95,3,1,5,0.00
2013-7-15,95,82,61,52,42,32,62,27,11,29.81,29.63,15,7,24,0.00
2013-7-16,90,67,46,60,51,41,91,60,30,29.95,29.72,12,3,13,0.01
2013-7-17,94,71,60,66,59,48,91,68,34,29.91,29.70,25,5,39,0.04
2013-7-18,89,71,52,59,51,40,94,56,21,29.95,29.83,6,2,11,0.02
2013-7-19,90,70,48,53,44,38,70,44,18,29.92,29.75,10,4,14,0.00
2013-7-20,92,70,45,53,43,34,71,42,18,29.83,29.61,7,3,11,0.00
2013-7-21,94,70,45,53,39,31,63,36,12,29.73,29.57,9,3,16,0.00
2013-7-22,90,70,48,49,34,19,53,31,9,29.78,29.67,15,5,23,0.00
2013-7-23,93,71,47,51,39,31,55,34,17,29.89,29.76,7,4,11,0.00
2013-7-24,96,72,48,53,41,29,56,36,16,29.85,29.70,9,4,13,0.00
2013-7-25,94,72,48,65,49,39,83,49,18,29.91,29.76,7,2,11,0.00
2013-7-26,95,74,49,54,43,31,73,38,13,29.93,29.75,14,4,21,0.00
2013-7-27,92,72,54,51,38,22,54,33,13,29.81,29.60,13,4,19,0.00
2013-7-28,83,65,48,59,42,33,65,44,23,29.69,29.55,6,1,9,0.01
2013-7-29,82,66,48,56,49,43,85,57,32,29.81,29.66,8,3,13,0.00
2013-7-30,75,60,43,56,46,37,86,62,36,30.06,29.81,13,2,18,0.00
2013-7-31,94,68,43,52,41,33,82,44,12,30.09,29.82,9,3,13,0.00
2013-8-1,78,59,51,56,48,38,92,69,42,29.83,29.68,15,4,22,0.07
2013-8-2,73,64,50,56,50,45,84,61,45,29.97,29.85,12,6,16,0.08
2013-8-3,81,62,45,55,48,42,95,65,32,30.00,29.86,11,3,14,0.03
2013-8-4,84,65,44,53,46,41,91,57,25,29.96,29.80,8,3,13,0.01
2013-8-5,84,66,45,58,44,38,80,50,22,29.89,29.70,14,5,17,0.01
2013-8-6,84,66,45,52,45,39,82,51,29,29.87,29.77,9,3,14,0.00
2013-8-7,88,65,47,50,43,38,73,49,21,29.84,29.70,7,3,10,0.00
2013-8-8,87,66,44,55,46,37,78,52,29,29.87,29.74,11,3,15,0.00
2013-8-9,82,64,51,59,52,44,88,67,34,29.91,29.74,16,2,19,0.10
2013-8-10,80,61,47,60,50,44,93,69,32,29.93,29.82,13,2,16,0.12
2013-8-11,83,62,48,56,48,40,85,62,29,29.93,29.81,16,3,19,0.03
2013-8-12,80,60,44,56,48,40,90,66,30,30.02,29.86,18,4,32,0.02
2013-8-13,87,63,44,56,48,41,90,62,24,30.03,29.85,11,2,16,0.02
2013-8-14,87,65,46,55,48,40,86,58,27,29.97,29.80,8,3,11,0.01
2013-8-15,95,70,45,58,42,31,75,43,12,29.87,29.70,11,3,16,0.00
2013-8-16,95,70,49,53,40,20,59,37,7,29.81,29.70,15,4,21,0.00
2013-8-17,89,68,46,54,46,38,79,50,18,29.90,29.70,7,2,10,0.00
2013-8-18,89,70,50,56,47,42,79,47,20,29.87,29.73,13,3,18,0.00
2013-8-19,92,71,50,48,40,29,67,38,12,29.85,29.70,17,5,23,0.00
2013-8-20,89,67,43,50,40,33,71,42,18,29.84,29.70,12,4,23,0.00
2013-8-21,89,65,43,51,42,35,75,46,21,29.92,29.77,6,2,12,0.00
2013-8-22,85,66,47,55,45,34,76,50,27,29.91,29.70,16,4,20,0.00
2013-8-23,82,69,53,54,48,44,87,51,29,29.75,29.56,17,7,22,0.01
2013-8-24,87,66,47,52,46,36,86,52,17,29.77,29.60,16,4,22,0.00
2013-8-25,85,68,57,53,46,41,72,48,23,29.78,29.63,18,8,26,0.00
2013-8-26,87,68,51,55,48,42,84,55,21,29.85,29.70,14,3,18,0.01
2013-8-27,88,69,49,53,46,39,86,50,19,29.84,29.69,16,5,25,0.00
2013-8-28,82,64,51,59,50,42,88,62,35,29.86,29.71,17,5,21,0.05
2013-8-29,90,69,53,57,50,38,89,59,17,29.91,29.73,18,5,21,0.03
2013-8-30,87,66,48,57,51,45,93,64,26,29.89,29.77,10,4,14,0.01
2013-8-31,85,74,53,52,46,40,63,39,26,29.94,29.81,8,4,12,0.00
2013-9-1,95,68,45,55,41,32,76,44,13,29.90,29.68,9,2,12,0.00
2013-9-2,84,68,52,51,42,36,60,41,21,29.79,29.67,14,5,19,0.00
2013-9-3,88,65,53,58,51,44,92,64,30,29.95,29.78,17,2,23,0.01
2013-9-4,89,68,53,60,54,49,95,65,29,29.95,29.84,10,2,14,0.02
2013-9-5,84,65,53,60,54,47,92,70,36,29.90,29.76,19,4,27,0.02
2013-9-6,81,64,49,66,57,47,96,79,47,29.89,29.73,8,2,10,0.05
2013-9-7,83,66,55,62,55,46,93,71,33,29.89,29.70,19,3,20,0.02
2013-9-8,76,58,46,57,48,41,96,72,31,29.87,29.75,15,5,22,0.00
2013-9-9,76,59,47,50,44,40,81,60,35,29.94,29.86,9,2,12,0.00
2013-9-10,83,61,42,50,43,37,91,58,22,30.02,29.88,6,2,7,0.00
2013-9-11,85,62,40,51,43,35,87,54,18,30.10,29.98,10,3,13,0.00
2013-9-12,83,65,45,52,46,41,89,54,29,30.08,29.82,11,4,16,0.00
2013-9-13,85,66,55,55,50,46,85,59,30,29.82,29.57,15,4,17,0.01
2013-9-14,77,62,50,56,50,43,94,69,35,29.91,29.70,15,4,20,0.01
2013-9-15,79,63,46,52,48,42,94,63,34,29.93,29.71,17,5,21,0.00
2013-9-16,83,68,54,53,48,42,82,53,24,29.75,29.52,18,7,23,0.00
2013-9-17,58,50,39,54,46,36,95,86,61,29.67,29.53,12,3,19,0.03
2013-9-18,60,50,44,45,40,34,93,70,43,30.01,29.60,15,6,20,0.03
2013-9-19,68,52,40,38,35,32,80,55,29,30.12,29.95,8,2,13,0.02
2013-9-20,75,57,37,37,32,25,81,45,18,29.99,29.64,16,9,22,0.01
2013-9-21,79,61,42,36,29,24,60,31,17,29.64,29.42,15,8,19,0.00
2013-9-22,61,51,42,48,44,39,91,78,53,29.66,29.46,12,4,17,0.01
2013-9-23,63,48,40,42,37,32,91,68,35,29.92,29.65,16,4,23,0.03
2013-9-24,51,41,34,43,38,30,93,86,69,29.91,29.72,9,2,13,0.02
2013-9-25,47,40,36,44,38,34,96,92,78,29.75,29.60,15,5,20,0.04
2013-9-26,43,37,29,36,33,26,94,86,70,30.05,29.75,15,7,23,0.03
2013-9-27,49,38,26,35,30,24,94,74,50,30.10,29.98,13,3,15,0.45
2013-9-28,59,49,42,42,37,33,76,65,51,29.98,29.71,17,8,24,0.00
2013-9-29,54,47,40,42,38,36,88,72,54,29.71,29.48,20,5,27,0.10
2013-9-30,55,44,38,41,34,26,94,69,36,29.90,29.46,18,7,26,0.09
2013-10-1,53,43,34,37,32,27,85,64,42,30.01,29.88,12,6,16,0.00
2013-10-2,53,41,28,35,30,25,93,68,38,30.13,29.89,10,1,13,0.01
2013-10-3,40,34,32,32,30,27,93,85,68,30.39,29.89,19,13,28,0.02
2013-10-4,50,37,30,30,28,26,91,74,42,30.56,30.39,7,2,11,0.00
2013-10-5,60,40,26,33,28,22,88,65,31,30.48,30.33,11,4,15,0.00
2013-10-6,70,55,34,34,32,28,88,45,23,30.34,29.91,17,9,25,0.00
2013-10-7,70,56,43,32,28,23,62,36,17,29.92,29.57,17,10,24,0.00
2013-10-8,52,41,28,34,27,23,85,60,33,29.95,29.68,14,3,17,0.00
2013-10-9,60,40,26,34,29,22,94,67,33,30.07,29.85,5,1,7,0.00
2013-10-10,54,38,24,36,28,20,95,71,35,29.92,29.77,13,4,18,0.00
2013-10-11,54,41,28,32,26,21,82,57,28,30.04,29.91,10,3,18,0.00
2013-10-12,53,36,23,30,25,19,89,68,39,30.14,30.02,8,2,11,0.00
2013-10-13,51,36,23,35,28,20,94,76,52,30.25,30.11,10,2,14,0.00
2013-10-14,49,38,28,36,29,22,91,72,47,30.43,30.25,11,3,17,0.00
2013-10-15,56,34,20,29,23,16,91,67,31,30.46,30.23,6,2,9,0.00
2013-10-16,48,34,21,32,25,16,90,72,39,30.24,30.13,11,3,15,0.00
2013-10-17,49,37,27,35,30,23,92,77,49,30.30,30.17,9,2,14,0.00
2013-10-18,59,38,24,31,26,21,91,66,25,30.32,30.13,9,3,13,0.00
2013-10-19,60,41,20,32,25,16,93,58,29,30.17,30.00,14,3,18,0.00
2013-10-20,59,44,32,33,29,26,82,58,36,30.12,29.98,7,2,11,0.00
2013-10-21,61,41,28,36,30,24,92,69,37,30.25,30.12,6,2,10,0.00
2013-10-22,65,41,25,37,30,22,95,69,33,30.24,30.13,7,2,11,0.00
2013-10-23,63,42,26,33,27,22,85,60,26,30.22,30.12,7,3,9,0.00
2013-10-24,67,44,28,33,28,22,82,58,25,30.23,30.07,10,4,15,0.00
2013-10-25,64,41,26,32,26,21,90,60,26,30.32,30.14,8,3,11,0.00
2013-10-26,62,39,21,31,24,18,91,58,27,30.33,30.13,7,3,11,0.00
2013-10-27,64,41,28,30,24,20,72,55,22,30.13,29.69,18,8,31,0.00
2013-10-28,29,21,18,22,15,12,86,77,69,30.26,30.04,17,11,25,0.00
2013-10-29,41,25,10,25,17,6,90,73,49,30.23,30.04,9,2,12,0.00
2013-10-30,46,30,12,28,20,8,94,70,46,30.11,30.01,11,3,15,0.00
2013-10-31,47,39,36,36,29,24,87,67,52,30.09,29.91,13,4,18,0.01
2013-11-1,50,38,25,33,28,20,90,68,42,30.24,30.08,14,4,20,0.00
2013-11-2,58,39,24,36,28,21,94,69,27,30.12,29.63,18,6,26,0.03
2013-11-3,36,31,23,24,19,14,76,62,45,29.99,29.70,12,4,18,0.00
2013-11-4,39,26,18,22,17,13,89,72,42,30.21,29.98,11,2,15,0.00
2013-11-5,39,27,15,24,16,8,86,65,37,30.29,30.20,12,5,18,0.00
2013-11-6,45,36,28,27,23,17,85,62,34,30.36,30.18,16,5,30,0.00
2013-11-7,49,39,30,38,32,25,88,75,60,30.34,29.67,22,7,27,0.11
2013-11-8,41,35,28,31,26,20,79,71,59,30.17,29.82,11,4,18,0.01
2013-11-9,48,32,20,28,23,16,89,69,41,30.29,30.16,8,1,11,0.00
2013-11-10,58,40,26,37,30,23,91,70,39,30.22,30.09,13,3,19,0.00
2013-11-11,54,38,28,38,31,25,93,78,46,30.43,30.17,8,2,13,0.00
2013-11-12,66,48,33,32,28,24,85,50,21,30.42,30.19,17,8,21,0.00
2013-11-13,52,42,34,37,28,22,84,61,36,30.22,30.11,18,5,22,0.00
2013-11-14,46,33,22,27,22,17,87,66,44,30.20,29.83,10,3,13,0.00
2013-11-15,43,35,25,24,20,16,84,54,39,29.83,29.37,12,4,17,0.00
2013-11-16,38,32,24,27,21,13,76,63,45,29.64,29.25,15,7,18,0.00
2013-11-17,39,31,24,24,20,15,75,62,45,30.03,29.64,15,6,16,0.00
2013-11-18,50,40,32,20,17,14,59,40,25,30.05,29.75,15,11,20,0.00
2013-11-19,50,44,39,34,29,19,78,58,39,29.76,29.57,17,10,25,0.00
2013-11-20,40,29,7,34,20,1,86,68,39,30.34,29.59,13,5,22,0.00
2013-11-21,30,13,0,12,3,-5,93,68,35,30.84,30.34,5,1,6,0.00
2013-11-22,32,15,2,12,6,-2,89,68,40,30.91,30.81,7,2,9,0.00
2013-11-23,36,18,8,18,9,3,92,69,44,30.85,30.49,12,2,15,0.00
2013-11-24,39,22,8,21,14,4,92,71,42,30.51,30.37,6,1,9,0.00
2013-11-25,45,28,14,23,17,9,90,66,39,30.52,30.40,4,1,6,0.00
2013-11-26,56,33,18,27,20,12,91,64,29,30.52,30.19,10,3,12,0.00
2013-11-27,50,30,17,28,20,14,92,70,39,30.21,30.12,7,2,12,0.00
2013-11-28,42,26,15,26,18,11,93,75,47,30.28,30.19,9,2,12,0.00
2013-11-29,50,32,17,25,20,13,89,65,36,30.32,30.19,11,3,15,0.00
2013-11-30,45,38,32,32,28,23,78,68,55,30.26,30.15,10,2,17,0.00
2013-12-1,42,40,36,35,32,28,85,73,66,30.15,29.64,15,8,22,0.00
2013-12-2,44,31,10,35,25,3,89,79,64,29.87,29.45,16,6,19,0.01
2013-12-3,10,4,-6,3,-4,-11,77,69,56,30.49,29.87,13,7,17,0.00
2013-12-4,8,-4,-12,-1,-11,-18,83,73,54,30.61,30.48,10,2,14,0.00
2013-12-5,10,-6,-14,-3,-13,-21,92,71,53,30.65,30.54,9,2,12,0.00
2013-12-6,2,-10,-18,-7,-16,-23,89,74,58,30.72,30.63,7,1,10,0.00
2013-12-7,1,-11,-22,-10,-18,-29,80,71,54,30.69,30.47,3,0,7,0.00
2013-12-8,3,-10,-23,-3,-16,-29,81,76,70,30.77,30.58,9,2,13,0.00
2013-12-9,21,4,-18,13,-1,-24,92,77,69,30.78,30.49,13,3,20,0.00
2013-12-10,32,21,15,18,14,11,87,75,51,30.49,30.33,14,5,22,0.00
2013-12-11,30,21,11,18,13,6,85,71,60,30.50,30.44,11,5,15,0.01
2013-12-12,40,29,19,20,17,12,78,60,43,30.46,30.11,17,8,20,0.00
2013-12-13,39,32,26,27,23,17,90,69,58,30.36,30.08,15,6,21,0.00
2013-12-14,42,35,30,28,25,20,80,66,42,30.40,30.20,13,5,21,0.00
2013-12-15,50,42,36,28,22,16,56,45,34,30.23,30.08,16,9,22,0.00
2013-12-16,51,39,23,24,19,15,76,46,27,30.33,30.11,16,6,26,0.00
2013-12-17,54,41,26,21,18,16,66,42,26,30.33,29.90,20,8,24,0.00
2013-12-18,50,40,29,27,20,16,87,48,27,29.89,29.64,11,5,18,0.00
2013-12-19,29,10,-4,26,5,-9,88,80,63,30.26,29.69,14,3,17,0.02
2013-12-20,28,18,3,21,11,0,92,77,55,30.25,29.73,13,5,19,0.00
2013-12-21,33,26,20,25,20,17,90,81,63,30.08,29.72,9,3,14,0.00
2013-12-22,35,28,23,30,23,18,90,82,72,30.29,30.05,7,2,10,0.00
2013-12-23,44,37,26,34,30,22,89,77,65,30.29,29.90,23,6,26,0.04
2013-12-24,36,29,19,24,18,13,79,63,48,30.52,30.08,15,7,20,0.00
2013-12-25,41,22,9,18,12,4,88,67,32,30.60,30.42,9,2,14,0.00
2013-12-26,50,38,22,29,23,13,79,56,43,30.49,30.28,12,5,19,0.00
2013-12-27,54,41,28,25,21,17,72,46,26,30.28,29.93,13,8,18,0.00
2013-12-28,41,30,21,26,21,16,89,68,39,30.37,29.93,13,3,19,0.00
2013-12-29,35,28,19,24,17,12,76,64,45,30.41,30.19,15,6,21,0.00
2013-12-30,44,36,25,30,26,20,84,67,47,30.27,30.01,11,5,19,0.00
2013-12-31,42,38,33,31,29,23,89,70,61,30.14,29.93,13,6,18,0.00
2014-1-1,39,30,18,24,20,14,87,66,44,30.39,30.14,14,4,19,0.00
2014-1-2,44,34,21,24,20,15,81,58,36,30.38,29.88,16,9,24,0.00